createdAt,value
2022-09-20T00:01:35.847Z,19.70
2022-09-20T00:04:05.350Z,19.70
2022-09-20T00:06:33.592Z,19.73
2022-09-20T00:09:01.403Z,19.68
2022-09-20T00:11:30.144Z,19.73
2022-09-20T00:13:58.660Z,19.73
2022-09-20T00:16:32.554Z,19.68
2022-09-20T00:19:01.188Z,19.71
2022-09-20T00:21:29.609Z,19.70
2022-09-20T00:24:00.256Z,19.67
2022-09-20T00:26:28.026Z,19.70
2022-09-20T00:28:55.003Z,19.70
2022-09-20T00:31:21.609Z,19.65
2022-09-20T00:34:07.159Z,19.69
2022-09-20T00:36:33.775Z,19.70
2022-09-20T00:39:02.034Z,19.68
2022-09-20T00:41:30.734Z,19.67
2022-09-20T00:43:58.967Z,19.66
2022-09-20T00:46:28.184Z,19.67
2022-09-20T00:49:06.704Z,19.62
2022-09-20T00:51:38.008Z,19.64
2022-09-20T00:54:06.808Z,19.66
2022-09-20T00:56:36.501Z,19.63
2022-09-20T00:59:37.492Z,19.65
2022-09-20T01:02:14.147Z,19.65
2022-09-20T01:04:42.590Z,19.64
2022-09-20T01:07:13.632Z,19.56
2022-09-20T01:09:40.139Z,19.61
2022-09-20T01:12:13.606Z,19.57
2022-09-20T01:14:42.483Z,19.63
2022-09-20T01:17:09.504Z,19.61
2022-09-20T01:20:13.349Z,19.63
2022-09-20T01:23:10.568Z,19.60
2022-09-20T01:25:48.269Z,19.60
2022-09-20T01:28:15.959Z,19.59
2022-09-20T01:31:02.907Z,19.57
2022-09-20T01:33:32.414Z,19.58
2022-09-20T01:36:03.373Z,19.57
2022-09-20T01:38:56.176Z,19.58
2022-09-20T01:41:31.459Z,19.56
2022-09-20T01:44:13.384Z,19.58
2022-09-20T01:46:43.668Z,19.58
2022-09-20T01:49:30.683Z,19.56
2022-09-20T01:52:20.188Z,19.58
2022-09-20T01:55:00.956Z,19.49
2022-09-20T01:57:58.634Z,19.56
2022-09-20T02:00:38.989Z,19.57
2022-09-20T02:03:51.800Z,19.55
2022-09-20T02:06:37.915Z,19.54
2022-09-20T02:09:23.452Z,19.53
2022-09-20T02:12:18.589Z,19.55
2022-09-20T02:15:23.811Z,19.53
2022-09-20T02:18:02.545Z,19.53
2022-09-20T02:20:50.710Z,19.51
2022-09-20T02:23:40.615Z,19.52
2022-09-20T02:27:01.170Z,19.48
2022-09-20T02:29:49.064Z,19.51
2022-09-20T02:32:37.306Z,19.50
2022-09-20T02:35:35.520Z,19.49
2022-09-20T02:38:41.645Z,19.48
2022-09-20T02:41:22.207Z,19.46
2022-09-20T02:44:15.324Z,19.47
2022-09-20T02:47:14.301Z,19.46
2022-09-20T02:50:08.138Z,19.42
2022-09-20T02:52:43.413Z,19.46
2022-09-20T02:55:32.011Z,19.45
2022-09-20T02:58:30.975Z,19.45
2022-09-20T03:01:26.527Z,19.44
2022-09-20T03:04:17.529Z,19.43
2022-09-20T03:07:06.757Z,19.41
2022-09-20T03:10:05.821Z,19.42
2022-09-20T03:12:47.476Z,19.43
2022-09-20T03:15:34.547Z,19.42
2022-09-20T03:18:11.284Z,19.41
2022-09-20T03:21:13.610Z,19.40
2022-09-20T03:23:52.076Z,19.39
2022-09-20T03:26:46.927Z,19.38
2022-09-20T03:29:42.377Z,19.39
2022-09-20T03:32:33.601Z,19.38
2022-09-20T03:35:14.915Z,19.34
2022-09-20T03:37:56.275Z,19.36
2022-09-20T03:40:46.233Z,19.33
2022-09-20T03:43:34.767Z,19.34
2022-09-20T03:46:08.448Z,19.31
2022-09-20T03:49:13.646Z,19.31
2022-09-20T03:52:07.563Z,19.33
2022-09-20T03:54:46.945Z,19.28
2022-09-20T03:57:31.734Z,19.33
2022-09-20T04:00:04.524Z,19.31
2022-09-20T04:02:34.046Z,19.31
2022-09-20T04:05:10.372Z,19.29
2022-09-20T04:07:52.048Z,19.30
2022-09-20T04:10:33.768Z,19.24
2022-09-20T04:13:17.470Z,19.28
2022-09-20T04:15:50.468Z,19.29
2022-09-20T04:18:30.073Z,19.28
2022-09-20T04:21:23.774Z,19.27
2022-09-20T04:23:50.243Z,19.26
2022-09-20T04:26:24.619Z,19.26
2022-09-20T04:29:31.137Z,19.26
2022-09-20T04:32:09.871Z,19.23
2022-09-20T04:35:04.667Z,19.21
2022-09-20T04:37:38.391Z,19.19
2022-09-20T04:40:43.773Z,19.21
2022-09-20T04:43:35.322Z,19.22
2022-09-20T04:46:39.023Z,19.19
2022-09-20T04:49:30.019Z,19.19
2022-09-20T04:52:04.034Z,19.17
2022-09-20T04:54:55.552Z,19.17
2022-09-20T04:57:54.651Z,19.17
2022-09-20T05:00:24.162Z,19.11
2022-09-20T05:03:29.593Z,19.15
2022-09-20T05:06:20.143Z,19.15
2022-09-20T05:09:26.977Z,19.12
2022-09-20T05:12:47.654Z,19.10
2022-09-20T05:15:23.383Z,19.12
2022-09-20T05:18:17.956Z,19.13
2022-09-20T05:21:18.331Z,19.11
2022-09-20T05:24:17.026Z,19.06
2022-09-20T05:27:19.579Z,19.13
2022-09-20T05:29:52.082Z,19.15
2022-09-20T05:32:27.950Z,19.11
2022-09-20T05:35:15.470Z,19.18
2022-09-20T05:38:05.719Z,19.17
2022-09-20T05:40:53.527Z,19.19
2022-09-20T05:43:39.970Z,19.19
2022-09-20T05:46:22.973Z,19.17
2022-09-20T05:49:02.432Z,19.20
2022-09-20T05:51:37.827Z,19.22
2022-09-20T05:54:30.499Z,19.10
2022-09-20T05:57:15.181Z,19.23
2022-09-20T06:00:00.601Z,19.24
2022-09-20T06:02:59.449Z,19.25
2022-09-20T06:05:59.341Z,19.27
2022-09-20T06:08:49.390Z,19.27
2022-09-20T06:11:52.167Z,19.28
2022-09-20T06:14:37.702Z,19.28
2022-09-20T06:17:18.890Z,19.29
2022-09-20T06:20:17.630Z,19.29
2022-09-20T06:22:58.210Z,19.29
2022-09-20T06:25:29.844Z,19.29
2022-09-20T06:28:01.521Z,19.26
2022-09-20T06:30:41.474Z,19.30
2022-09-20T06:33:07.941Z,19.31
2022-09-20T06:35:42.903Z,19.27
2022-09-20T06:38:58.781Z,19.32
2022-09-20T06:41:29.788Z,19.32
2022-09-20T06:44:00.469Z,19.31
2022-09-20T06:46:36.516Z,19.34
2022-09-20T06:49:04.030Z,19.35
2022-09-20T06:51:35.739Z,19.33
2022-09-20T06:54:03.165Z,19.27
2022-09-20T06:56:34.218Z,19.23
2022-09-20T06:59:01.108Z,19.31
2022-09-20T07:01:30.496Z,19.27
2022-09-20T07:03:58.618Z,19.23
2022-09-20T07:06:25.213Z,19.24
2022-09-20T07:08:51.707Z,19.29
2022-09-20T07:11:18.394Z,19.21
2022-09-20T07:13:45.779Z,19.25
2022-09-20T07:16:14.231Z,19.24
2022-09-20T07:18:41.414Z,19.22
2022-09-20T07:21:16.181Z,19.19
2022-09-20T07:23:45.797Z,19.19
2022-09-20T07:26:31.549Z,19.13
2022-09-20T07:28:59.820Z,19.16
2022-09-20T07:31:30.667Z,19.15
2022-09-20T07:33:57.705Z,19.16
2022-09-20T07:36:24.627Z,19.18
2022-09-20T07:38:53.732Z,19.19
2022-09-20T07:41:20.606Z,19.22
2022-09-20T07:44:21.086Z,19.19
2022-09-20T07:46:51.557Z,19.24
2022-09-20T07:49:24.311Z,19.26
2022-09-20T07:51:51.139Z,19.28
2022-09-20T07:54:18.651Z,19.30
2022-09-20T07:56:45.996Z,19.32
2022-09-20T07:59:13.860Z,19.33
2022-09-20T08:01:41.753Z,19.31
2022-09-20T08:04:09.631Z,19.33
2022-09-20T08:06:38.554Z,19.35
2022-09-20T08:09:10.204Z,19.35
2022-09-20T08:11:39.429Z,19.34
2022-09-20T08:14:08.062Z,19.39
2022-09-20T08:16:40.759Z,19.40
2022-09-20T08:19:07.955Z,19.38
2022-09-20T08:21:38.027Z,19.41
2022-09-20T08:24:04.804Z,19.43
2022-09-20T08:26:31.662Z,19.36
2022-09-20T08:28:59.913Z,19.44
2022-09-20T08:31:31.449Z,19.42
2022-09-20T08:33:59.124Z,19.45
2022-09-20T08:36:26.206Z,19.44
2022-09-20T08:41:48.590Z,19.49
2022-09-20T08:44:25.115Z,19.47
2022-09-20T08:47:05.671Z,19.48
2022-09-20T08:49:33.459Z,19.48
2022-09-20T08:52:02.222Z,19.48
2022-09-20T08:54:33.150Z,19.46
2022-09-20T08:57:11.001Z,19.47
2022-09-20T08:59:37.582Z,19.46
2022-09-20T09:02:13.293Z,19.46
2022-09-20T09:04:39.794Z,19.43
2022-09-20T09:07:06.605Z,19.43
2022-09-20T09:09:38.059Z,19.43
2022-09-20T09:12:05.195Z,19.43
2022-09-20T09:14:49.589Z,19.43
2022-09-20T09:17:18.888Z,19.44
2022-09-20T09:19:48.802Z,19.42
2022-09-20T09:22:24.842Z,19.46
2022-09-20T09:25:22.453Z,19.47
2022-09-20T09:28:00.257Z,19.47
2022-09-20T09:30:30.244Z,19.48
2022-09-20T09:33:31.510Z,19.49
2022-09-20T09:36:05.055Z,19.53
2022-09-20T09:38:37.849Z,19.64
2022-09-20T09:41:17.665Z,19.67
2022-09-20T09:44:02.733Z,19.88
2022-09-20T09:46:34.612Z,20.00
2022-09-20T09:49:19.886Z,20.08
2022-09-20T09:52:14.968Z,20.12
2022-09-20T09:54:48.829Z,20.11
2022-09-20T09:57:31.910Z,20.17
2022-09-20T10:00:20.457Z,20.19
2022-09-20T10:02:54.331Z,20.17
2022-09-20T10:05:44.135Z,20.17
2022-09-20T10:08:49.399Z,20.12
2022-09-20T10:11:15.823Z,20.10
2022-09-20T10:13:57.308Z,20.08
2022-09-20T10:16:43.304Z,20.05
2022-09-20T10:19:23.378Z,19.99
2022-09-20T10:22:04.044Z,20.03
2022-09-20T10:24:52.247Z,20.02
2022-09-20T10:28:07.366Z,20.05
2022-09-20T10:31:06.263Z,20.05
2022-09-20T10:33:44.447Z,20.07
2022-09-20T10:36:34.538Z,20.07
2022-09-20T10:39:10.691Z,20.00
2022-09-20T10:42:12.386Z,20.03
2022-09-20T10:44:47.490Z,20.08
2022-09-20T10:47:20.163Z,20.04
2022-09-20T10:49:56.736Z,20.09
2022-09-20T10:52:38.270Z,20.11
2022-09-20T10:55:26.331Z,20.12
2022-09-20T10:58:01.588Z,20.13
2022-09-20T11:00:41.652Z,20.13
2022-09-20T11:03:50.173Z,20.12
2022-09-20T11:06:37.576Z,20.11
2022-09-20T11:09:13.826Z,20.07
2022-09-20T11:11:46.725Z,20.12
2022-09-20T11:14:23.233Z,20.15
2022-09-20T11:17:08.381Z,20.15
2022-09-20T11:20:06.174Z,20.14
2022-09-20T11:22:43.985Z,20.13
2022-09-20T11:25:29.281Z,20.12
2022-09-20T11:28:07.826Z,20.09
2022-09-20T11:30:40.845Z,20.10
2022-09-20T11:33:19.183Z,20.12
2022-09-20T11:35:50.293Z,20.15
2022-09-20T11:38:40.273Z,20.18
2022-09-20T11:41:15.939Z,20.19
2022-09-20T11:43:44.417Z,20.19
2022-09-20T11:46:18.113Z,20.16
2022-09-20T11:49:02.773Z,20.20
2022-09-20T11:51:35.245Z,20.23
2022-09-20T11:54:28.186Z,20.21
2022-09-20T11:56:57.037Z,20.22
2022-09-20T11:59:37.204Z,20.22
2022-09-20T12:02:16.041Z,20.24
2022-09-20T12:04:49.499Z,20.22
2022-09-20T12:07:18.329Z,20.27
2022-09-20T12:09:54.251Z,20.27
2022-09-20T12:12:30.558Z,20.26
2022-09-20T12:15:00.346Z,20.26
2022-09-20T12:17:45.716Z,20.27
2022-09-20T12:20:42.481Z,20.27
2022-09-20T12:23:43.247Z,20.30
2022-09-20T12:26:22.119Z,20.32
2022-09-20T12:28:54.038Z,20.33
2022-09-20T12:31:29.450Z,20.36
2022-09-20T12:34:02.285Z,20.37
2022-09-20T12:36:36.241Z,20.38
2022-09-20T12:39:11.988Z,20.38
2022-09-20T12:42:02.826Z,20.40
2022-09-20T12:44:41.024Z,20.40
2022-09-20T12:47:10.582Z,20.43
2022-09-20T12:50:01.569Z,20.44
2022-09-20T12:52:58.480Z,20.46
2022-09-20T12:55:40.876Z,20.47
2022-09-20T12:58:19.343Z,20.48
2022-09-20T13:00:59.282Z,20.49
2022-09-20T13:03:45.851Z,20.48
2022-09-20T13:06:16.426Z,20.47
2022-09-20T13:08:48.038Z,20.48
2022-09-20T13:11:20.261Z,20.45
2022-09-20T13:13:49.575Z,20.47
2022-09-20T13:16:24.101Z,20.49
2022-09-20T13:19:06.806Z,20.46
2022-09-20T13:21:37.081Z,20.46
2022-09-20T13:24:05.257Z,20.50
2022-09-20T13:26:40.840Z,20.51
2022-09-20T13:29:10.256Z,20.50
2022-09-20T13:31:36.864Z,20.41
2022-09-20T13:34:25.937Z,20.51
2022-09-20T13:36:58.101Z,20.51
2022-09-20T13:39:37.292Z,20.51
2022-09-20T13:42:19.352Z,20.52
2022-09-20T13:44:47.907Z,20.52
2022-09-20T13:47:27.786Z,20.54
2022-09-20T13:50:00.253Z,20.54
2022-09-20T13:52:29.354Z,20.51
2022-09-20T13:54:56.397Z,20.52
2022-09-20T13:57:27.484Z,20.53
2022-09-20T13:59:55.011Z,20.49
2022-09-20T14:02:31.726Z,20.57
2022-09-20T14:05:01.421Z,20.57
2022-09-20T14:07:29.538Z,20.59
2022-09-20T14:09:58.158Z,20.55
2022-09-20T14:12:26.566Z,20.59
2022-09-20T14:14:54.439Z,20.59
2022-09-20T14:17:24.579Z,20.60
2022-09-20T14:19:54.474Z,20.61
2022-09-20T14:22:26.816Z,20.61
2022-09-20T14:25:12.487Z,20.62
2022-09-20T14:27:39.318Z,20.60
2022-09-20T14:30:07.368Z,20.63
2022-09-20T14:32:45.624Z,20.64
2022-09-20T14:35:19.063Z,20.65
2022-09-20T14:37:50.050Z,20.68
2022-09-20T14:40:21.489Z,20.69
2022-09-20T14:42:59.215Z,20.69
2022-09-20T14:45:34.910Z,20.72
2022-09-20T14:48:08.047Z,20.71
2022-09-20T14:50:39.280Z,20.72
2022-09-20T14:53:26.826Z,20.73
2022-09-20T14:56:05.594Z,20.76
2022-09-20T14:58:33.543Z,20.76
2022-09-20T15:01:23.066Z,20.75
2022-09-20T15:03:50.346Z,20.77
2022-09-20T15:06:16.915Z,20.81
2022-09-20T15:08:46.600Z,20.80
2022-09-20T15:11:18.641Z,20.83
2022-09-20T15:13:45.583Z,20.85
2022-09-20T15:16:14.809Z,20.83
2022-09-20T15:18:42.954Z,20.89
2022-09-20T15:21:13.293Z,20.90
2022-09-20T15:23:40.182Z,20.89
2022-09-20T15:26:07.673Z,20.91
2022-09-20T15:28:34.667Z,20.89
2022-09-20T15:31:01.146Z,20.94
2022-09-20T15:33:30.679Z,20.90
2022-09-20T15:35:57.331Z,20.95
2022-09-20T15:38:26.785Z,20.97
2022-09-20T15:40:54.006Z,20.98
2022-09-20T15:43:26.397Z,20.99
2022-09-20T15:45:55.967Z,20.96
2022-09-20T15:48:27.339Z,20.97
2022-09-20T15:51:06.716Z,20.96
2022-09-20T15:53:36.038Z,21.01
2022-09-20T15:56:05.334Z,21.00
2022-09-20T15:58:36.327Z,21.02
2022-09-20T16:01:08.125Z,21.04
2022-09-20T16:03:36.108Z,21.04
2022-09-20T16:06:07.359Z,21.04
2022-09-20T16:08:39.270Z,21.05
2022-09-20T16:11:07.974Z,21.05
2022-09-20T16:13:38.720Z,21.07
2022-09-20T16:16:07.358Z,21.06
2022-09-20T16:18:54.453Z,21.08
2022-09-20T16:21:21.576Z,21.08
2022-09-20T16:23:50.446Z,21.10
2022-09-20T16:26:17.510Z,21.08
2022-09-20T16:28:47.561Z,21.11
2022-09-20T16:31:41.867Z,21.09
2022-09-20T16:34:12.668Z,21.13
2022-09-20T16:36:43.725Z,21.14
2022-09-20T16:39:10.780Z,21.13
2022-09-20T16:41:38.169Z,21.14
2022-09-20T16:44:05.605Z,21.13
2022-09-20T16:46:32.759Z,21.14
2022-09-20T16:49:00.887Z,21.16
2022-09-20T16:51:33.475Z,21.18
2022-09-20T16:54:12.222Z,21.14
2022-09-20T16:56:41.509Z,21.13
2022-09-20T16:59:08.522Z,21.14
2022-09-20T17:01:36.943Z,21.17
2022-09-20T17:04:08.311Z,21.13
2022-09-20T17:06:37.162Z,21.17
2022-09-20T17:09:05.670Z,21.18
2022-09-20T17:11:34.925Z,21.16
2022-09-20T17:14:01.432Z,21.18
2022-09-20T17:16:30.933Z,21.14
2022-09-20T17:18:59.967Z,21.18
2022-09-20T17:21:28.496Z,21.18
2022-09-20T17:23:59.511Z,21.14
2022-09-20T17:26:31.358Z,21.14
2022-09-20T17:28:58.962Z,21.16
2022-09-20T17:31:31.629Z,21.17
2022-09-20T17:34:00.204Z,21.16
2022-09-20T17:36:32.162Z,21.14
2022-09-20T17:39:04.240Z,21.14
2022-09-20T17:41:31.590Z,21.11
2022-09-20T17:43:59.841Z,21.15
2022-09-20T17:46:31.048Z,21.14
2022-09-20T17:49:00.590Z,21.11
2022-09-20T17:51:29.538Z,21.11
2022-09-20T17:53:56.068Z,21.10
2022-09-20T17:56:24.761Z,21.09
2022-09-20T17:58:51.257Z,21.11
2022-09-20T18:01:20.350Z,21.12
2022-09-20T18:03:48.868Z,21.11
2022-09-20T18:06:15.425Z,21.11
2022-09-20T18:08:45.803Z,21.11
2022-09-20T18:11:12.778Z,21.08
2022-09-20T18:13:39.281Z,21.10
2022-09-20T18:16:10.941Z,21.10
2022-09-20T18:18:39.771Z,21.04
2022-09-20T18:21:22.383Z,21.09
2022-09-20T18:23:49.922Z,21.09
2022-09-20T18:26:22.006Z,21.08
2022-09-20T18:29:12.171Z,21.06
2022-09-20T18:31:43.192Z,21.06
2022-09-20T18:34:12.625Z,21.06
2022-09-20T18:36:39.626Z,21.06
2022-09-20T18:39:07.405Z,21.06
2022-09-20T18:41:36.759Z,21.02
2022-09-20T18:44:07.126Z,21.06
2022-09-20T18:46:37.881Z,21.05
2022-09-20T18:49:09.272Z,21.04
2022-09-20T18:51:39.709Z,21.03
2022-09-20T18:54:09.953Z,21.01
2022-09-20T18:56:38.482Z,21.04
2022-09-20T18:59:26.680Z,21.02
2022-09-20T19:02:14.575Z,21.02
2022-09-20T19:05:13.988Z,21.01
2022-09-20T19:07:46.575Z,20.99
2022-09-20T19:11:01.211Z,20.99
2022-09-20T19:13:37.045Z,20.98
2022-09-20T19:16:21.218Z,20.98
2022-09-20T19:19:25.698Z,20.97
2022-09-20T19:21:58.542Z,20.93
2022-09-20T19:24:43.194Z,20.97
2022-09-20T19:27:14.103Z,20.95
2022-09-20T19:29:41.406Z,20.87
2022-09-20T19:32:15.974Z,20.94
2022-09-20T19:34:44.687Z,20.94
2022-09-20T19:37:24.632Z,20.93
2022-09-20T19:40:03.357Z,20.92
2022-09-20T19:42:55.947Z,20.92
2022-09-20T19:45:31.660Z,20.91
2022-09-20T19:48:24.435Z,20.88
2022-09-20T19:50:54.605Z,20.88
2022-09-20T19:53:24.168Z,20.87
2022-09-20T19:56:08.065Z,20.87
2022-09-20T19:58:35.510Z,20.87
2022-09-20T20:01:02.281Z,20.86
2022-09-20T20:03:29.894Z,20.87
2022-09-20T20:06:22.626Z,20.86
2022-09-20T20:09:29.581Z,20.85
2022-09-20T20:12:05.201Z,20.85
2022-09-20T20:14:49.100Z,20.84
2022-09-20T20:17:21.432Z,20.85
2022-09-20T20:20:22.414Z,20.84
2022-09-20T20:23:07.438Z,20.79
2022-09-20T20:26:00.092Z,20.79
2022-09-20T20:28:27.411Z,20.75
2022-09-20T20:30:57.829Z,20.78
2022-09-20T20:33:26.854Z,20.76
2022-09-20T20:35:58.543Z,20.74
2022-09-20T20:38:26.633Z,20.75
2022-09-20T20:41:14.538Z,20.74
2022-09-20T20:43:42.911Z,20.75
2022-09-20T20:46:14.102Z,20.72
2022-09-20T20:48:41.078Z,20.73
2022-09-20T20:51:10.116Z,20.72
2022-09-20T20:53:39.377Z,20.71
2022-09-20T20:56:12.205Z,20.71
2022-09-20T20:58:41.490Z,20.69
2022-09-20T21:01:15.580Z,20.67
2022-09-20T21:03:45.899Z,20.64
2022-09-20T21:06:13.139Z,20.63
2022-09-20T21:08:43.844Z,20.61
2022-09-20T21:11:18.790Z,20.62
2022-09-20T21:13:47.058Z,20.59
2022-09-20T21:16:16.667Z,20.60
2022-09-20T21:18:45.433Z,20.60
2022-09-20T21:21:23.850Z,20.59
2022-09-20T21:23:52.590Z,20.58
2022-09-20T21:26:20.270Z,20.57
2022-09-20T21:28:57.964Z,20.53
2022-09-20T21:31:26.043Z,20.56
2022-09-20T21:33:53.266Z,20.54
2022-09-20T21:36:22.586Z,20.48
2022-09-20T21:38:49.795Z,20.54
2022-09-20T21:41:20.026Z,20.54
2022-09-20T21:43:48.963Z,20.53
2022-09-20T21:46:19.266Z,20.52
2022-09-20T21:48:47.544Z,20.49
2022-09-20T21:51:17.048Z,20.51
2022-09-20T21:53:44.702Z,20.49
2022-09-20T21:56:13.624Z,20.49
2022-09-20T21:58:40.430Z,20.48
2022-09-20T22:01:15.652Z,20.48
2022-09-20T22:03:44.427Z,20.47
2022-09-20T22:06:17.498Z,20.46
2022-09-20T22:08:58.539Z,20.43
2022-09-20T22:11:34.464Z,20.42
2022-09-20T22:14:01.115Z,20.43
2022-09-20T22:16:32.787Z,20.40
2022-09-20T22:19:00.491Z,20.40
2022-09-20T22:21:33.488Z,20.39
2022-09-20T22:24:02.770Z,20.38
2022-09-20T22:26:32.119Z,20.33
2022-09-20T22:28:58.893Z,20.37
2022-09-20T22:31:28.278Z,20.35
2022-09-20T22:33:57.134Z,20.29
2022-09-20T22:36:29.817Z,20.33
2022-09-20T22:38:56.719Z,20.28
2022-09-20T22:41:24.351Z,20.27
2022-09-20T22:43:51.022Z,20.29
2022-09-20T22:46:20.297Z,20.27
2022-09-20T22:48:47.499Z,20.19
2022-09-20T22:51:20.670Z,20.27
2022-09-20T22:53:48.084Z,20.26
2022-09-20T22:56:18.703Z,20.25
2022-09-20T22:58:47.628Z,20.23
2022-09-20T23:01:25.825Z,20.24
2022-09-20T23:04:01.045Z,20.19
2022-09-20T23:06:30.949Z,20.21
2022-09-20T23:09:02.414Z,20.19
2022-09-20T23:11:29.562Z,20.19
2022-09-20T23:13:58.535Z,20.18
2022-09-20T23:16:28.771Z,20.12
2022-09-20T23:18:56.942Z,20.16
2022-09-20T23:21:24.536Z,20.14
2022-09-20T23:23:59.604Z,20.13
2022-09-20T23:26:29.828Z,20.10
2022-09-20T23:29:01.531Z,20.10
2022-09-20T23:31:29.509Z,20.12
2022-09-20T23:33:58.319Z,20.11
2022-09-20T23:36:27.234Z,20.02
2022-09-20T23:38:54.138Z,20.09
2022-09-20T23:41:22.946Z,20.07
2022-09-20T23:43:49.758Z,20.08
2022-09-20T23:46:18.263Z,20.04
2022-09-20T23:48:45.606Z,20.03
2022-09-20T23:51:15.140Z,20.05
2022-09-20T23:53:42.856Z,20.04
2022-09-20T23:56:11.390Z,19.99
2022-09-20T23:58:39.758Z,20.00
